Time;durP1;ratioP1;P1;durP2;ratioP2;P2;SDS_P1;SDS_P2;PMS_P1;PMS_P2;Temp;Humidity;BMP_temperature;BMP_pressure;BME280_temperature;BME280_humidity;BME280_pressure;Samples;Min_cycle;Max_cycle;Signal;HPM_P1;HPM_P2
2022/04/23 00:01:42;;;;;;;3.03;1.50;;;;;;;13.75;55.62;93652.34;5031916;28;20215;-78
2022/04/23 00:04:10;;;;;;;0.32;0.30;;;;;;;13.47;55.94;93639.97;5032452;28;20228;-69
2022/04/23 00:06:37;;;;;;;0.52;0.45;;;;;;;14.45;52.35;93643.38;5031990;28;20251;-78
2022/04/23 00:09:06;;;;;;;3.90;0.73;;;;;;;14.45;52.43;93627.03;5031870;28;20216;-72
2022/04/23 00:11:34;;;;;;;12.52;0.98;;;;;;;14.60;52.42;93644.28;5031574;28;20219;-80
2022/04/23 00:14:01;;;;;;;0.90;0.75;;;;;;;14.80;51.52;93637.44;5031969;28;20298;-76
2022/04/23 00:16:28;;;;;;;4.88;0.90;;;;;;;15.11;49.63;93630.63;5031409;28;20643;-79
2022/04/23 00:18:58;;;;;;;2.28;1.02;;;;;;;14.90;51.07;93637.50;5031317;28;20207;-78
2022/04/23 00:21:25;;;;;;;1.45;0.93;;;;;;;14.64;51.99;93643.16;5031351;28;20728;-78
2022/04/23 00:23:52;;;;;;;0.73;0.68;;;;;;;14.22;54.20;93652.47;5035360;28;20199;-79
2022/04/23 00:26:20;;;;;;;0.50;0.50;;;;;;;13.93;55.12;93656.06;5037278;28;20207;-76
2022/04/23 00:28:47;;;;;;;3.05;1.50;;;;;;;14.07;53.41;93642.63;5031322;28;20563;-80
2022/04/23 00:31:14;;;;;;;2.08;1.60;;;;;;;14.04;53.51;93628.94;5031474;28;20203;-76
2022/04/23 00:33:41;;;;;;;3.50;1.40;;;;;;;14.39;51.93;93628.50;5031555;28;20291;-77
2022/04/23 00:36:10;;;;;;;3.63;1.40;;;;;;;14.55;51.79;93618.16;5031401;28;20232;-78
2022/04/23 00:38:38;;;;;;;3.03;1.40;;;;;;;14.78;51.88;93634.28;5031239;28;20204;-79
2022/04/23 00:41:05;;;;;;;2.05;1.25;;;;;;;15.25;49.44;93626.06;5031023;28;20208;-75
2022/04/23 00:43:34;;;;;;;4.22;1.40;;;;;;;15.53;48.61;93625.41;5031040;28;20251;-77
2022/04/23 00:46:02;;;;;;;1.63;1.23;;;;;;;15.29;49.74;93631.53;5031536;28;20221;-80
2022/04/23 00:48:29;;;;;;;4.40;1.55;;;;;;;15.53;48.53;93619.97;5030477;28;20224;-80
2022/04/23 00:50:58;;;;;;;3.40;1.20;;;;;;;15.27;49.78;93625.69;5031030;28;20689;-72
2022/04/23 00:53:26;;;;;;;2.10;1.42;;;;;;;15.15;50.09;93626.00;5031385;28;20201;-82
2022/04/23 00:55:53;;;;;;;2.53;1.52;;;;;;;15.14;50.44;93621.69;5030216;28;20228;-79
2022/04/23 00:58:23;;;;;;;5.13;1.63;;;;;;;15.07;49.85;93636.06;5030941;28;20522;-80
2022/04/23 01:00:51;;;;;;;5.82;1.50;;;;;;;15.01;49.89;93643.06;5031040;28;20663;-75
2022/04/23 01:03:18;;;;;;;4.60;1.23;;;;;;;15.23;49.25;93633.06;5030869;28;20614;-78
2022/04/23 01:05:47;;;;;;;3.47;1.42;;;;;;;15.08;50.20;93647.75;5031495;28;20258;-78
2022/04/23 01:08:17;;;;;;;2.42;1.35;;;;;;;14.98;50.42;93648.47;5031119;28;20209;-78
2022/04/23 01:10:45;;;;;;;3.80;1.63;;;;;;;15.16;50.09;93627.56;5017323;28;20200;-73
2022/04/23 01:13:14;;;;;;;3.88;1.30;;;;;;;14.98;50.91;93648.47;5031091;28;20224;-79
2022/04/23 01:15:43;;;;;;;4.03;1.42;;;;;;;14.83;50.96;93637.47;5031026;28;20255;-73
2022/04/23 01:18:12;;;;;;;2.92;1.63;;;;;;;15.27;49.67;93629.19;5030151;28;20290;-82
2022/04/23 01:20:40;;;;;;;2.05;1.17;;;;;;;15.09;50.76;93641.16;5038932;28;20257;-79
2022/04/23 01:23:07;;;;;;;1.77;1.30;;;;;;;15.00;50.62;93652.41;5037159;28;20208;-78
2022/04/23 01:25:34;;;;;;;1.63;1.23;;;;;;;14.84;51.01;93655.41;5050407;28;20596;-79
2022/04/23 01:28:02;;;;;;;4.35;1.20;;;;;;;14.77;50.67;93646.34;5035028;28;20625;-78
2022/04/23 01:30:29;;;;;;;6.15;1.70;;;;;;;14.84;50.84;93655.41;5031056;28;20228;-79
2022/04/23 01:32:55;;;;;;;6.22;1.30;;;;;;;14.77;51.18;93660.78;5030620;28;20204;-79
2022/04/23 01:35:22;;;;;;;2.53;1.17;;;;;;;14.96;50.67;93645.34;5030280;28;20204;-80
2022/04/23 01:37:51;;;;;;;2.05;1.30;;;;;;;14.74;50.89;93650.66;5030395;28;20231;-78
2022/04/23 01:40:21;;;;;;;5.00;1.42;;;;;;;14.52;52.22;93654.34;5031139;28;20211;-78
2022/04/23 01:42:48;;;;;;;3.58;1.77;;;;;;;14.53;51.93;93650.47;5030112;28;20250;-78
2022/04/23 01:45:14;;;;;;;5.93;1.52;;;;;;;14.75;51.20;93644.03;5030117;28;20224;-80
2022/04/23 01:47:41;;;;;;;3.00;1.77;;;;;;;14.68;51.63;93654.88;5030314;28;20652;-79
2022/04/23 01:50:09;;;;;;;2.65;1.55;;;;;;;14.76;50.74;93659.22;5030234;28;20209;-79
2022/04/23 01:52:36;;;;;;;3.97;1.63;;;;;;;14.72;51.22;93650.25;5030216;28;20208;-82
2022/04/23 01:55:05;;;;;;;3.10;1.52;;;;;;;14.90;50.52;93637.50;5030671;28;20209;-77
2022/04/23 01:57:31;;;;;;;4.30;1.60;;;;;;;14.93;50.59;93634.03;5030057;28;20232;-78
2022/04/23 01:59:58;;;;;;;2.92;1.15;;;;;;;14.97;50.78;93642.25;5030396;28;20274;-79
2022/04/23 02:02:25;;;;;;;3.30;1.33;;;;;;;14.96;50.91;93650.78;5030372;28;20204;-78
2022/04/23 02:04:52;;;;;;;4.95;1.75;;;;;;;14.60;52.02;93666.88;5030634;28;20254;-78
2022/04/23 02:07:19;;;;;;;3.30;1.48;;;;;;;14.24;52.76;93655.59;5032785;28;20609;-79
2022/04/23 02:09:46;;;;;;;3.92;1.63;;;;;;;13.90;54.18;93662.25;5034350;28;20211;-82
2022/04/23 02:12:14;;;;;;;3.00;1.48;;;;;;;13.49;55.63;93669.53;5034295;28;20200;-81
2022/04/23 02:14:41;;;;;;;3.33;1.58;;;;;;;13.34;56.36;93668.56;5034193;28;20204;-78
2022/04/23 02:17:09;;;;;;;1.92;1.23;;;;;;;13.12;57.34;93677.53;5034170;28;20224;-77
2022/04/23 02:19:36;;;;;;;4.18;2.22;;;;;;;13.05;58.18;93689.09;5034052;28;20207;-78
2022/04/23 02:22:03;;;;;;;3.17;1.80;;;;;;;12.96;58.08;93685.06;5033628;28;20200;-75
2022/04/23 02:24:30;;;;;;;3.78;1.77;;;;;;;12.86;58.50;93680.22;5042586;28;20203;-78
2022/04/23 02:26:57;;;;;;;2.05;1.45;;;;;;;12.76;58.78;93670.78;5033900;28;20239;-80
2022/04/23 02:29:25;;;;;;;3.58;1.58;;;;;;;12.71;59.22;93693.59;5033962;28;20319;-77
2022/04/23 02:31:52;;;;;;;3.88;1.75;;;;;;;12.60;59.65;93691.84;5021299;28;20211;-77
2022/04/23 02:34:21;;;;;;;2.53;1.80;;;;;;;12.36;60.06;93680.22;5033737;28;20567;-79
2022/04/23 02:36:48;;;;;;;6.85;1.70;;;;;;;12.25;60.79;93700.97;5034233;28;20251;-77
2022/04/23 02:39:14;;;;;;;2.08;1.40;;;;;;;12.10;61.06;93705.34;5033569;28;20216;-82
2022/04/23 02:41:41;;;;;;;3.28;1.52;;;;;;;11.98;61.49;93705.50;5033880;28;20207;-79
2022/04/23 02:44:08;;;;;;;3.63;1.70;;;;;;;11.90;62.04;93722.00;5032857;28;20265;-81
2022/04/23 02:46:36;;;;;;;6.22;2.03;;;;;;;11.78;61.95;93725.63;5033241;28;20233;-78
2022/04/23 02:49:03;;;;;;;6.93;2.03;;;;;;;11.75;62.51;93710.06;5033273;28;20204;-76
2022/04/23 02:51:30;;;;;;;2.65;1.92;;;;;;;11.63;63.05;93702.03;5033037;28;20687;-79
2022/04/23 02:53:57;;;;;;;0.38;0.38;;;;;;;11.65;63.10;93705.19;5033102;28;20625;-77
2022/04/23 02:56:26;;;;;;;0.60;0.60;;;;;;;11.62;63.03;93701.25;5033348;28;20231;-78
2022/04/23 02:58:53;;;;;;;2.95;1.52;;;;;;;11.60;63.25;93694.66;5033438;28;20603;-81
2022/04/23 03:01:22;;;;;;;0.45;0.45;;;;;;;11.64;62.79;93690.06;5033026;28;20200;-77
2022/04/23 03:03:54;;;;;;;2.10;1.88;;;;;;;11.65;63.03;93695.13;5033047;28;20197;-76
2022/04/23 03:06:22;;;;;;;1.15;1.05;;;;;;;11.63;63.25;93704.75;5033437;28;20196;-79
2022/04/23 03:08:49;;;;;;;0.95;0.70;;;;;;;11.54;63.60;93704.97;5032896;28;20266;-81
2022/04/23 03:11:16;;;;;;;0.55;0.55;;;;;;;11.46;63.88;93694.34;5033596;28;20271;-79
2022/04/23 03:13:43;;;;;;;0.75;0.75;;;;;;;11.44;64.16;93692.00;5032613;28;20709;-81
2022/04/23 03:16:10;;;;;;;0.65;0.65;;;;;;;11.35;64.36;93692.19;5033112;28;20237;-80
2022/04/23 03:18:37;;;;;;;3.88;1.55;;;;;;;11.34;64.56;93679.75;5031707;28;20211;-76
2022/04/23 03:21:05;;;;;;;0.73;0.70;;;;;;;11.28;64.87;93692.03;5032974;28;20602;-78
2022/04/23 03:23:32;;;;;;;0.63;0.63;;;;;;;11.21;65.26;93697.28;5032423;28;20200;-79
2022/04/23 03:25:59;;;;;;;0.90;0.77;;;;;;;11.18;65.56;93702.66;5032454;28;20208;-79
2022/04/23 03:28:26;;;;;;;1.00;0.88;;;;;;;11.15;65.58;93704.13;5032317;28;20237;-79
2022/04/23 03:30:53;;;;;;;0.55;0.55;;;;;;;11.18;65.75;93719.69;5032542;28;20203;-78
2022/04/23 03:33:20;;;;;;;0.57;0.57;;;;;;;11.15;65.46;93709.56;5032496;28;20212;-75
2022/04/23 03:35:47;;;;;;;0.50;0.50;;;;;;;11.07;66.05;93707.06;5032398;28;20694;-77
2022/04/23 03:38:16;;;;;;;0.70;0.60;;;;;;;11.02;65.96;93699.97;5032271;28;20595;-78
2022/04/23 03:40:43;;;;;;;4.85;1.90;;;;;;;11.09;65.67;93710.97;5032816;28;20205;-79
2022/04/23 03:43:10;;;;;;;0.93;0.73;;;;;;;11.07;65.86;93702.38;5032273;28;20251;-78
2022/04/23 03:45:37;;;;;;;1.80;1.10;;;;;;;11.15;65.86;93711.50;5032054;28;20224;-79
2022/04/23 03:48:05;;;;;;;5.53;1.98;;;;;;;11.24;65.74;93731.81;5038464;28;20231;-77
2022/04/23 03:50:33;;;;;;;5.05;1.10;;;;;;;11.12;66.55;93726.53;5039530;28;20196;-78
2022/04/23 03:53:00;;;;;;;1.95;0.40;;;;;;;11.13;67.01;93727.31;5018360;28;20298;-79
2022/04/23 03:55:30;;;;;;;0.52;0.52;;;;;;;11.32;66.17;93730.88;5045224;28;20225;-79
2022/04/23 03:57:57;;;;;;;1.70;1.13;;;;;;;11.34;66.40;93744.81;5018959;28;20228;-79
2022/04/23 04:00:24;;;;;;;3.65;0.95;;;;;;;11.37;66.07;93746.06;5032228;28;20205;-78
2022/04/23 04:02:51;;;;;;;1.20;1.00;;;;;;;11.27;66.55;93746.59;5031641;28;20196;-78
2022/04/23 04:05:18;;;;;;;0.57;0.55;;;;;;;11.22;66.96;93752.28;5032096;28;20208;-79
2022/04/23 04:07:47;;;;;;;1.23;0.98;;;;;;;11.24;67.00;93739.97;5031772;28;20291;-79
2022/04/23 04:10:17;;;;;;;0.65;0.47;;;;;;;11.44;66.02;93735.38;5031929;28;20287;-79
2022/04/23 04:12:45;;;;;;;3.47;2.28;;;;;;;11.43;66.35;93746.56;5031530;28;20227;-78
2022/04/23 04:15:15;;;;;;;4.43;1.90;;;;;;;11.56;66.10;93745.31;5031246;28;20254;-78
2022/04/23 04:17:43;;;;;;;1.90;1.35;;;;;;;11.58;65.58;93751.16;5031916;28;20228;-79
2022/04/23 04:20:12;;;;;;;3.35;0.65;;;;;;;11.61;65.48;93758.59;5031955;28;20231;-79
2022/04/23 04:22:39;;;;;;;5.68;2.17;;;;;;;11.65;65.23;93743.94;5042670;28;20204;-79
2022/04/23 04:25:07;;;;;;;4.00;1.52;;;;;;;11.69;64.78;93746.75;5047217;28;20424;-79
2022/04/23 04:27:34;;;;;;;2.13;1.15;;;;;;;11.69;65.06;93742.13;5039350;28;20628;-79
2022/04/23 04:30:04;;;;;;;1.08;0.80;;;;;;;11.86;64.57;93740.94;5049828;28;20258;-78
2022/04/23 04:32:31;;;;;;;5.85;3.10;;;;;;;12.04;64.12;93747.50;5032152;28;20217;-77
2022/04/23 04:34:58;;;;;;;4.85;2.58;;;;;;;12.28;63.63;93751.84;5029679;28;20197;-79
2022/04/23 04:37:25;;;;;;;2.40;1.10;;;;;;;12.60;62.64;93755.13;5030261;28;20579;-77
2022/04/23 04:39:52;;;;;;;1.50;1.20;;;;;;;12.78;61.88;93758.94;5029249;28;21106;-78
2022/04/23 04:42:19;;;;;;;3.97;1.67;;;;;;;12.84;61.15;93750.50;5027666;28;20533;-75
2022/04/23 04:44:46;;;;;;;3.88;2.45;;;;;;;12.55;63.04;93758.16;5030977;28;20211;-77
2022/04/23 04:47:14;;;;;;;4.78;2.63;;;;;;;12.56;63.77;93764.38;5027023;28;20481;-80
2022/04/23 04:49:41;;;;;;;2.95;2.03;;;;;;;12.59;62.67;93761.72;5029831;28;20668;-77
2022/04/23 04:52:08;;;;;;;3.22;2.17;;;;;;;12.87;62.12;93764.13;5029726;28;20212;-80
2022/04/23 04:54:35;;;;;;;9.00;6.18;;;;;;;13.29;60.38;93764.06;5031348;28;20578;-79
2022/04/23 04:57:02;;;;;;;5.18;4.15;;;;;;;13.22;60.10;93763.97;5028616;28;20233;-81
2022/04/23 04:59:31;;;;;;;5.78;2.30;;;;;;;13.19;59.60;93764.69;5027532;28;20284;-82
2022/04/23 05:01:59;;;;;;;4.80;2.17;;;;;;;13.42;61.04;93778.25;5029863;28;20280;-80
2022/04/23 05:04:28;;;;;;;4.45;2.35;;;;;;;13.75;61.96;93791.16;5029443;28;20280;-78
2022/04/23 05:06:57;;;;;;;4.32;2.10;;;;;;;13.49;61.70;93776.44;5032583;28;20204;-86
2022/04/23 05:09:24;;;;;;;6.18;2.67;;;;;;;13.94;60.63;93782.84;5030415;28;20203;-79
2022/04/23 05:11:58;;;;;;;5.88;2.45;;;;;;;14.04;61.41;93798.56;5032466;28;20823;-86
2022/04/23 05:14:25;;;;;;;2.78;1.92;;;;;;;14.44;59.05;93783.50;5030480;28;20219;-81
2022/04/23 05:16:54;;;;;;;3.95;2.67;;;;;;;14.01;59.19;93796.56;5029528;28;20212;-81
2022/04/23 05:19:21;;;;;;;3.17;2.13;;;;;;;13.72;59.29;93819.13;5029775;28;20231;-81
2022/04/23 05:21:51;;;;;;;3.05;2.10;;;;;;;14.34;58.67;93825.81;5030107;28;20232;-85
2022/04/23 05:24:18;;;;;;;6.43;2.30;;;;;;;14.68;57.84;93826.59;5030340;28;20283;-78
2022/04/23 05:26:44;;;;;;;8.05;2.03;;;;;;;14.61;57.73;93837.44;5028708;28;20208;-82
2022/04/23 05:29:11;;;;;;;6.32;2.33;;;;;;;13.95;58.66;93838.88;5030333;28;20196;-88
2022/04/23 05:31:40;;;;;;;6.80;2.58;;;;;;;14.23;58.25;93838.47;5032093;28;20615;-80
2022/04/23 05:34:07;;;;;;;4.38;2.17;;;;;;;14.59;57.69;93839.75;5031372;28;20216;-79
2022/04/23 05:36:34;;;;;;;5.47;2.58;;;;;;;15.02;55.94;93832.03;5031819;28;20220;-79
2022/04/23 05:39:02;;;;;;;4.93;2.33;;;;;;;15.50;55.05;93833.63;5029121;28;20220;-78
2022/04/23 05:41:29;;;;;;;7.07;2.55;;;;;;;15.61;54.46;93826.31;5037727;28;20199;-76
2022/04/23 05:43:56;;;;;;;5.43;2.55;;;;;;;15.69;53.90;93826.38;5053349;28;20239;-78
2022/04/23 05:46:23;;;;;;;7.32;3.05;;;;;;;15.94;53.50;93825.38;5052690;28;20219;-77
2022/04/23 05:48:49;;;;;;;3.95;2.67;;;;;;;16.31;52.64;93824.41;5045148;28;20206;-77
2022/04/23 05:51:16;;;;;;;5.60;2.75;;;;;;;17.70;49.47;93822.81;5032193;28;20192;-77
2022/04/23 05:53:43;;;;;;;3.50;2.17;;;;;;;19.09;46.43;93806.72;5029536;28;20204;-78
2022/04/23 05:56:11;;;;;;;3.90;2.60;;;;;;;19.98;44.02;93806.84;5033573;28;20223;-79
2022/04/23 05:58:38;;;;;;;7.22;2.45;;;;;;;20.21;43.55;93809.00;5034900;28;20231;-80
2022/04/23 06:01:05;;;;;;;6.85;2.97;;;;;;;20.18;43.86;93807.06;5033077;28;20274;-75
2022/04/23 06:03:32;;;;;;;10.63;2.90;;;;;;;20.93;42.86;93802.25;5033270;28;20193;-82
2022/04/23 06:05:59;;;;;;;3.15;2.28;;;;;;;20.51;43.51;93800.81;5032960;28;20200;-76
2022/04/23 06:08:26;;;;;;;5.45;2.13;;;;;;;21.71;41.89;93792.09;5021253;28;20575;-79
2022/04/23 06:10:53;;;;;;;4.35;2.45;;;;;;;22.27;40.50;93790.38;5031223;28;20193;-79
2022/04/23 06:13:21;;;;;;;3.72;1.98;;;;;;;24.22;37.68;93790.00;5034135;28;20231;-80
2022/04/23 06:15:48;;;;;;;5.07;1.95;;;;;;;23.28;38.39;93796.19;5053160;28;20216;-81
2022/04/23 06:18:15;;;;;;;6.03;2.40;;;;;;;23.02;39.19;93800.72;5052864;28;20238;-77
2022/04/23 06:20:42;;;;;;;3.45;2.20;;;;;;;24.46;37.17;93794.16;5053847;28;20210;-82
2022/04/23 06:23:08;;;;;;;8.00;2.53;;;;;;;25.43;35.43;93785.41;5052765;28;20230;-83
2022/04/23 06:25:36;;;;;;;3.05;1.80;;;;;;;26.62;33.29;93789.47;5044492;28;20215;-79
2022/04/23 06:28:04;;;;;;;5.88;1.90;;;;;;;27.08;32.43;93789.81;5047391;28;20223;-82
2022/04/23 06:30:32;;;;;;;4.20;1.80;;;;;;;25.23;34.78;93795.94;5033353;28;20334;-77
2022/04/23 06:32:59;;;;;;;3.97;2.08;;;;;;;24.94;35.84;93789.69;5035379;28;20690;-79
2022/04/23 06:35:25;;;;;;;2.58;2.03;;;;;;;19.72;45.44;93816.50;5032447;28;20342;-75
2022/04/23 06:37:54;;;;;;;2.53;2.17;;;;;;;18.83;48.16;93818.25;5032337;28;20232;-79
2022/04/23 06:40:21;;;;;;;2.53;2.03;;;;;;;19.46;46.94;93814.31;5032762;28;20215;-79
2022/04/23 06:42:48;;;;;;;2.33;1.88;;;;;;;20.11;45.84;93810.63;5032860;28;20243;-80
2022/04/23 06:45:14;;;;;;;3.05;2.13;;;;;;;19.73;45.10;93812.56;5032337;28;20235;-80
2022/04/23 06:47:43;;;;;;;2.60;1.60;;;;;;;20.51;43.97;93817.31;5033403;28;20216;-75
2022/04/23 06:50:10;;;;;;;3.15;1.98;;;;;;;20.00;44.95;93809.19;5032668;28;20207;-80
2022/04/23 06:52:37;;;;;;;4.32;1.92;;;;;;;21.13;43.02;93805.16;5032541;28;20204;-77
2022/04/23 06:55:05;;;;;;;2.00;1.73;;;;;;;22.83;40.36;93797.97;5032720;28;20207;-73
2022/04/23 06:57:32;;;;;;;4.05;2.00;;;;;;;23.12;39.07;93804.44;5050193;28;20586;-74
2022/04/23 07:00:01;;;;;;;4.07;2.70;;;;;;;23.19;39.31;93804.31;5041260;28;20235;-88
2022/04/23 07:02:28;;;;;;;4.55;2.30;;;;;;;21.74;41.39;93813.28;5031807;28;20197;-77
2022/04/23 07:04:58;;;;;;;2.75;2.05;;;;;;;20.97;43.33;93818.72;5033032;28;20197;-74
2022/04/23 07:07:24;;;;;;;4.78;2.80;;;;;;;20.92;43.97;93819.19;5033764;28;20207;-78
2022/04/23 07:09:51;;;;;;;6.20;2.35;;;;;;;21.60;42.59;93819.81;5033038;28;20258;-78
2022/04/23 07:12:19;;;;;;;2.80;2.40;;;;;;;20.60;45.13;93824.31;5032706;28;20224;-78
2022/04/23 07:14:52;;;;;;;3.70;2.78;;;;;;;19.09;48.88;93834.97;5032029;28;20231;-78
2022/04/23 07:17:24;;;;;;;4.40;2.78;;;;;;;20.47;46.65;93826.81;5031332;28;20208;-86
2022/04/23 07:19:51;;;;;;;4.47;2.90;;;;;;;20.49;45.45;93836.22;5026347;28;20227;-81
2022/04/23 07:22:20;;;;;;;5.22;3.35;;;;;;;21.00;44.48;93834.44;5032128;28;20377;-82
2022/04/23 07:24:48;;;;;;;5.13;2.65;;;;;;;19.72;47.22;93849.47;5031320;28;20567;-80
2022/04/23 07:27:15;;;;;;;3.70;2.17;;;;;;;18.78;49.29;93868.84;5031851;28;20361;-74
2022/04/23 07:29:42;;;;;;;2.95;1.90;;;;;;;17.44;53.17;93876.00;5031414;28;20208;-76
2022/04/23 07:32:09;;;;;;;5.22;3.22;;;;;;;17.26;54.56;93875.97;5028596;28;20200;-79
2022/04/23 07:37:31;;;;;;;3.92;2.55;;;;;;;16.91;55.79;93876.66;5030757;28;20566;-79
2022/04/23 07:39:58;;;;;;;4.32;2.30;;;;;;;16.99;55.96;93883.69;5032415;28;20201;-79
2022/04/23 07:42:25;;;;;;;2.78;1.98;;;;;;;17.44;54.33;93886.94;5032495;28;20239;-75
2022/04/23 07:44:52;;;;;;;5.63;2.30;;;;;;;17.93;53.85;93886.22;5031616;28;20220;-78
2022/04/23 07:47:19;;;;;;;6.00;2.28;;;;;;;17.19;54.70;93892.38;5031711;28;20200;-76
2022/04/23 07:49:47;;;;;;;3.22;1.80;;;;;;;17.13;55.51;93893.13;5031611;28;20196;-80
2022/04/23 07:52:14;;;;;;;3.75;2.28;;;;;;;16.67;56.81;93899.97;5030896;28;20211;-79
2022/04/23 07:54:43;;;;;;;3.33;1.70;;;;;;;16.49;57.42;93898.31;5031910;28;20228;-74
2022/04/23 07:57:11;;;;;;;2.17;1.80;;;;;;;15.88;58.78;93900.66;5031935;28;20617;-79
2022/04/23 07:59:40;;;;;;;3.25;1.85;;;;;;;15.74;59.33;93907.94;5031196;28;20320;-74
2022/04/23 08:02:07;;;;;;;3.83;2.30;;;;;;;15.69;59.62;93906.34;5029177;28;20297;-81
2022/04/23 08:04:34;;;;;;;3.55;2.28;;;;;;;15.87;58.98;93898.28;5027947;28;20221;-80
2022/04/23 08:07:02;;;;;;;3.65;1.70;;;;;;;15.78;60.54;93909.53;5029493;28;20211;-78
2022/04/23 08:09:29;;;;;;;2.35;1.77;;;;;;;15.58;62.06;93922.63;5041433;28;20231;-76
2022/04/23 08:11:57;;;;;;;4.93;2.20;;;;;;;15.24;64.02;93912.91;5051125;28;20214;-72
2022/04/23 08:14:24;;;;;;;3.72;2.20;;;;;;;15.24;64.07;93923.81;5051597;28;20203;-83
2022/04/23 08:16:52;;;;;;;2.65;2.10;;;;;;;15.52;63.40;93918.66;5051264;28;20219;-77
2022/04/23 08:19:19;;;;;;;3.30;2.35;;;;;;;15.71;62.59;93925.09;5051450;28;20283;-72
2022/04/23 08:21:46;;;;;;;3.90;2.17;;;;;;;15.99;62.20;93914.38;5050953;28;20210;-75
2022/04/23 08:24:13;;;;;;;3.17;2.00;;;;;;;15.97;61.46;93916.72;5051418;28;20200;-77
2022/04/23 08:26:40;;;;;;;3.88;1.73;;;;;;;15.99;61.60;93908.91;5038377;28;20207;-72
2022/04/23 08:31:53;;;;;;;1.55;1.30;;;;;;;15.30;63.38;93944.19;5051130;28;20321;-73
2022/04/23 08:34:20;;;;;;;1.35;1.02;;;;;;;14.85;64.96;93932.38;5050070;28;20582;-72
2022/04/23 08:36:49;;;;;;;2.45;1.23;;;;;;;14.67;65.12;93923.16;5050686;28;20238;-73
2022/04/23 08:39:17;;;;;;;2.72;1.27;;;;;;;14.84;64.80;93933.50;5050806;28;20265;-77
2022/04/23 08:41:46;;;;;;;2.92;1.50;;;;;;;15.10;63.42;93929.13;5043086;28;20204;-75
2022/04/23 08:44:16;;;;;;;2.00;1.15;;;;;;;15.23;63.06;93923.03;5030983;28;20239;-75
2022/04/23 08:46:44;;;;;;;1.50;1.10;;;;;;;15.34;62.37;93934.06;5031345;28;20212;-73
2022/04/23 08:49:13;;;;;;;7.40;1.38;;;;;;;15.44;61.96;93938.88;5031637;28;20217;-79
2022/04/23 08:51:42;;;;;;;0.47;0.47;;;;;;;15.21;61.99;93935.47;5030801;28;20266;-75
2022/04/23 08:54:10;;;;;;;2.75;1.08;;;;;;;15.32;61.42;93936.38;5030920;28;20219;-77
2022/04/23 08:56:39;;;;;;;1.17;1.08;;;;;;;15.67;60.61;93938.72;5030909;28;20209;-79
2022/04/23 08:59:07;;;;;;;1.58;1.13;;;;;;;16.10;59.52;93937.13;5031018;28;20327;-75
2022/04/23 09:01:37;;;;;;;1.38;1.05;;;;;;;16.33;58.51;93934.94;5031140;28;20266;-79
2022/04/23 09:04:05;;;;;;;1.60;1.15;;;;;;;16.50;58.33;93938.94;5030573;28;20200;-78
2022/04/23 09:06:41;;;;;;;2.20;1.20;;;;;;;16.43;57.85;93938.09;5030427;28;20208;-77
2022/04/23 09:09:20;;;;;;;2.15;1.23;;;;;;;17.49;56.10;93933.13;5030901;28;20285;-78
2022/04/23 09:11:50;;;;;;;3.10;1.20;;;;;;;18.32;53.92;93924.56;5031830;28;20207;-79
2022/04/23 09:14:28;;;;;;;3.33;1.17;;;;;;;17.91;53.66;93926.13;5041760;28;20200;-74
2022/04/23 09:25:17;;;;;;;4.25;1.88;;;;;;;17.81;53.91;93924.97;5044501;28;20226;-78
2022/04/23 09:27:45;;;;;;;1.52;1.20;;;;;;;17.51;54.74;93919.81;5030732;28;20219;-80
2022/04/23 09:30:13;;;;;;;1.10;1.00;;;;;;;17.47;55.38;93918.25;5030624;28;20216;-78
2022/04/23 09:32:57;;;;;;;2.58;1.10;;;;;;;17.24;55.98;93921.31;5030626;28;20207;-79
2022/04/23 09:35:25;;;;;;;2.65;1.20;;;;;;;17.80;54.27;93919.88;5050193;28;20211;-78
2022/04/23 09:40:36;;;;;;;4.32;1.52;;;;;;;17.07;55.72;93906.41;5050551;28;20210;-77
2022/04/23 09:43:06;;;;;;;3.28;1.60;;;;;;;16.75;56.67;93900.03;5050048;28;20437;-73
2022/04/23 09:45:34;;;;;;;3.63;1.10;;;;;;;16.43;58.03;93916.22;5050386;28;20292;-78
2022/04/23 09:48:19;;;;;;;3.33;1.35;;;;;;;16.86;57.04;93901.63;5050407;28;20257;-82
2022/04/23 09:50:47;;;;;;;1.17;1.00;;;;;;;17.20;56.36;93904.09;5050233;28;20215;-77
2022/04/23 09:53:15;;;;;;;2.65;1.30;;;;;;;17.51;55.21;93897.91;5049914;28;20701;-77
2022/04/23 09:55:42;;;;;;;1.75;1.10;;;;;;;17.73;54.83;93899.53;5049929;28;20204;-78
2022/04/23 09:58:11;;;;;;;2.40;1.20;;;;;;;17.68;54.85;93894.44;5050265;28;20204;-77
2022/04/23 10:00:39;;;;;;;2.35;1.48;;;;;;;17.80;55.10;93897.94;5050219;28;20215;-77
2022/04/23 10:03:07;;;;;;;2.13;1.10;;;;;;;18.33;53.54;93898.69;5029393;28;20216;-79
2022/04/23 10:05:40;;;;;;;4.30;1.30;;;;;;;18.59;53.40;93899.44;5032063;28;20211;-78
2022/04/23 10:08:12;;;;;;;2.80;1.75;;;;;;;19.67;50.95;93888.41;5049047;28;20212;-76
2022/04/23 10:10:44;;;;;;;2.85;1.33;;;;;;;19.00;52.44;93892.25;5030738;28;20714;-80
2022/04/23 10:13:13;;;;;;;2.38;1.48;;;;;;;19.05;50.87;93883.63;5043713;28;20200;-78
2022/04/23 10:15:43;;;;;;;2.63;1.42;;;;;;;19.73;50.26;93867.53;5050534;28;20289;-79
2022/04/23 10:18:10;;;;;;;4.22;1.27;;;;;;;19.12;51.02;93872.63;5048746;28;20207;-76
2022/04/23 10:20:40;;;;;;;4.53;1.42;;;;;;;18.77;51.04;93872.75;5030527;28;20240;-77
2022/04/23 10:23:15;;;;;;;2.38;1.15;;;;;;;18.53;52.08;93879.88;5031769;28;20291;-77
2022/04/23 10:25:49;;;;;;;1.80;1.50;;;;;;;18.99;51.25;93874.25;5039652;28;20242;-75
2022/04/23 10:28:18;;;;;;;2.55;1.20;;;;;;;18.97;50.95;93870.34;5032152;28;20204;-76
2022/04/23 10:30:47;;;;;;;3.83;2.20;;;;;;;19.48;50.69;93861.41;5033272;28;20235;-79
2022/04/23 10:33:29;;;;;;;5.95;1.75;;;;;;;19.27;51.64;93867.03;5033773;28;20303;-76
2022/04/23 10:36:09;;;;;;;4.20;1.45;;;;;;;19.30;50.13;93866.22;5031561;28;20223;-80
2022/04/23 10:38:42;;;;;;;2.45;1.40;;;;;;;19.34;50.18;93864.25;5041162;28;20646;-75
2022/04/23 10:41:11;;;;;;;5.82;1.48;;;;;;;19.15;50.64;93866.28;5052697;28;20211;-79
2022/04/23 10:43:50;;;;;;;2.45;1.20;;;;;;;19.55;49.25;93872.38;5053075;28;20710;-78
2022/04/23 10:46:45;;;;;;;3.63;1.42;;;;;;;19.31;50.30;93871.31;5035221;28;20212;-76
2022/04/23 10:49:14;;;;;;;3.40;1.60;;;;;;;19.21;50.03;93869.41;5032799;28;20220;-76
2022/04/23 10:51:50;;;;;;;2.97;1.50;;;;;;;20.30;48.54;93858.00;5033384;28;20703;-78
2022/04/23 10:54:19;;;;;;;1.63;1.20;;;;;;;21.16;46.11;93853.91;5032914;28;20251;-80
2022/04/23 10:56:49;;;;;;;3.97;2.40;;;;;;;20.37;47.88;93860.69;5033239;28;20519;-74
2022/04/23 10:59:36;;;;;;;5.47;1.80;;;;;;;19.67;47.86;93871.13;5033276;28;20239;-77
2022/04/23 11:02:06;;;;;;;3.83;1.77;;;;;;;19.58;48.99;93871.56;5031485;28;20200;-79
2022/04/23 11:04:34;;;;;;;3.53;1.33;;;;;;;19.18;49.84;93881.97;5021731;28;20212;-73
2022/04/23 11:12:37;;;;;;;1.92;1.27;;;;;;;18.93;50.36;93878.56;5032953;28;20249;-78
2022/04/23 11:15:19;;;;;;;3.10;1.45;;;;;;;19.10;50.65;93869.47;5032623;28;20258;-80
2022/04/23 11:17:58;;;;;;;4.53;1.77;;;;;;;19.31;49.80;93867.78;5032328;28;20208;-78
2022/04/23 11:20:30;;;;;;;3.45;1.35;;;;;;;19.45;48.77;93864.94;5018798;28;20232;-77
2022/04/23 11:23:00;;;;;;;5.35;1.70;;;;;;;19.87;48.59;93861.91;5032596;28;20212;-78
2022/04/23 11:25:27;;;;;;;4.20;2.03;;;;;;;20.55;46.60;93864.84;5041264;28;20664;-79
2022/04/23 11:28:00;;;;;;;3.63;2.53;;;;;;;20.83;45.89;93849.97;5032001;28;20251;-78
2022/04/23 11:30:29;;;;;;;4.50;1.55;;;;;;;21.23;44.66;93853.81;5031942;28;20832;-77
2022/04/23 11:33:08;;;;;;;2.22;1.35;;;;;;;20.85;45.19;93861.38;5032189;28;20587;-78
2022/04/23 11:35:36;;;;;;;3.97;1.85;;;;;;;20.79;46.26;93851.22;5032925;28;20215;-78
2022/04/23 11:38:04;;;;;;;1.80;1.35;;;;;;;21.05;46.34;93856.00;5032267;28;20240;-78
2022/04/23 11:40:35;;;;;;;3.72;1.60;;;;;;;20.70;46.11;93864.69;5031052;28;20244;-75
2022/04/23 11:43:02;;;;;;;4.00;1.45;;;;;;;20.98;45.54;93853.34;5031685;28;20271;-79
2022/04/23 11:45:30;;;;;;;5.75;1.48;;;;;;;20.83;46.36;93862.97;5032329;28;20291;-80
2022/04/23 11:47:57;;;;;;;2.92;1.20;;;;;;;20.29;46.42;93870.97;5032256;28;20608;-75
2022/04/23 11:50:24;;;;;;;3.80;1.60;;;;;;;19.58;46.98;93863.31;5032231;28;20212;-75
2022/04/23 11:52:59;;;;;;;2.50;1.30;;;;;;;19.27;48.69;93870.53;5027590;28;20288;-79
2022/04/23 11:55:30;;;;;;;3.72;1.25;;;;;;;19.07;49.89;93870.28;5026019;28;20207;-74
2022/04/23 11:57:58;;;;;;;2.78;1.23;;;;;;;19.03;50.28;93879.69;5031799;28;20219;-77
2022/04/23 12:00:26;;;;;;;2.85;0.98;;;;;;;18.36;52.08;93881.47;5031731;28;20243;-69
2022/04/23 12:02:53;;;;;;;1.27;0.82;;;;;;;17.49;55.74;93886.56;5031951;28;20208;-73